createdAt,value
2022-08-20T00:02:15.448Z,17.20
2022-08-20T00:04:44.013Z,15.30
2022-08-20T00:07:12.742Z,15.20
2022-08-20T00:09:41.863Z,17.58
2022-08-20T00:12:11.318Z,17.67
2022-08-20T00:14:41.450Z,11.77
2022-08-20T00:17:10.194Z,18.52
2022-08-20T00:19:38.421Z,18.73
2022-08-20T00:22:06.879Z,18.60
2022-08-20T00:24:35.205Z,9.68
2022-08-20T00:27:03.560Z,14.35
2022-08-20T00:29:32.583Z,19.42
2022-08-20T00:32:02.428Z,11.77
2022-08-20T00:34:30.803Z,18.60
2022-08-20T00:36:59.017Z,15.93
2022-08-20T00:39:27.457Z,15.02
2022-08-20T00:41:55.622Z,16.13
2022-08-20T00:44:24.317Z,13.98
2022-08-20T00:46:53.989Z,14.05
2022-08-20T00:49:26.746Z,16.30
2022-08-20T00:51:58.890Z,17.03
2022-08-20T00:54:31.358Z,15.50
2022-08-20T00:57:03.963Z,14.02
2022-08-20T00:59:34.730Z,14.73
2022-08-20T01:02:03.604Z,11.30
2022-08-20T01:04:35.547Z,13.65
2022-08-20T01:07:07.131Z,10.30
2022-08-20T01:09:58.155Z,12.82
2022-08-20T01:12:25.972Z,14.68
2022-08-20T01:14:55.239Z,16.45
2022-08-20T01:17:26.474Z,11.25
2022-08-20T01:19:59.610Z,12.57
2022-08-20T01:22:54.246Z,16.98
2022-08-20T01:25:29.940Z,17.30
2022-08-20T01:28:00.089Z,20.10
2022-08-20T01:30:30.077Z,13.30
2022-08-20T01:32:58.472Z,14.45
2022-08-20T01:35:29.375Z,15.05
2022-08-20T01:37:58.029Z,12.13
2022-08-20T01:40:40.090Z,15.45
2022-08-20T01:43:10.035Z,14.35
2022-08-20T01:45:40.080Z,14.55
2022-08-20T01:48:09.748Z,13.23
2022-08-20T01:50:43.013Z,12.80
2022-08-20T01:53:19.149Z,20.75
2022-08-20T01:55:47.662Z,20.13
2022-08-20T01:58:17.766Z,15.68
2022-08-20T02:00:46.075Z,19.55
2022-08-20T02:03:14.358Z,17.20
2022-08-20T02:05:42.746Z,17.92
2022-08-20T02:08:11.150Z,23.13
2022-08-20T02:10:39.385Z,17.52
2022-08-20T02:13:09.988Z,19.88
2022-08-20T02:15:43.221Z,18.73
2022-08-20T02:18:15.474Z,14.75
2022-08-20T02:20:45.535Z,19.00
2022-08-20T02:23:15.646Z,17.77
2022-08-20T02:25:47.763Z,13.13
2022-08-20T02:28:19.786Z,16.20
2022-08-20T02:30:52.363Z,22.60
2022-08-20T02:33:24.077Z,14.43
2022-08-20T02:35:57.167Z,16.85
2022-08-20T02:38:26.150Z,19.07
2022-08-20T02:40:54.460Z,23.48
2022-08-20T02:43:22.834Z,15.30
2022-08-20T02:45:52.399Z,18.52
2022-08-20T02:48:23.242Z,15.45
2022-08-20T02:50:55.273Z,19.58
2022-08-20T02:53:23.838Z,17.25
2022-08-20T02:55:52.483Z,18.30
2022-08-20T02:58:21.674Z,20.17
2022-08-20T03:00:51.911Z,21.02
2022-08-20T03:03:25.278Z,21.58
2022-08-20T03:05:56.346Z,17.83
2022-08-20T03:08:26.031Z,16.48
2022-08-20T03:10:54.227Z,20.23
2022-08-20T03:13:23.774Z,14.48
2022-08-20T03:15:58.836Z,15.93
2022-08-20T03:18:32.607Z,19.13
2022-08-20T03:21:01.612Z,15.20
2022-08-20T03:23:30.415Z,16.17
2022-08-20T03:25:58.615Z,19.75
2022-08-20T03:28:27.359Z,17.35
2022-08-20T03:30:58.032Z,17.80
2022-08-20T03:33:26.235Z,15.77
2022-08-20T03:35:54.945Z,15.13
2022-08-20T03:38:33.145Z,15.98
2022-08-20T03:41:04.965Z,15.55
2022-08-20T03:43:33.661Z,18.88
2022-08-20T03:46:05.219Z,16.38
2022-08-20T03:48:50.701Z,19.92
2022-08-20T03:51:28.670Z,19.88
2022-08-20T03:53:56.930Z,16.88
2022-08-20T03:56:25.122Z,18.77
2022-08-20T03:58:53.385Z,20.15
2022-08-20T04:01:44.314Z,19.58
2022-08-20T04:04:12.483Z,23.85
2022-08-20T04:06:41.341Z,19.00
2022-08-20T04:09:11.782Z,19.83
2022-08-20T04:11:40.609Z,16.35
2022-08-20T04:14:10.376Z,16.60
2022-08-20T04:16:41.584Z,19.70
2022-08-20T04:19:10.013Z,22.20
2022-08-20T04:21:38.388Z,23.75
2022-08-20T04:24:07.577Z,25.58
2022-08-20T04:26:50.411Z,23.00
2022-08-20T04:29:19.565Z,21.95
2022-08-20T04:31:49.260Z,21.58
2022-08-20T04:34:19.453Z,18.98
2022-08-20T04:36:49.095Z,21.67
2022-08-20T04:39:18.122Z,23.10
2022-08-20T04:41:45.333Z,17.13
2022-08-20T04:44:13.892Z,20.95
2022-08-20T04:46:42.480Z,21.58
2022-08-20T04:49:12.481Z,22.67
2022-08-20T04:51:40.901Z,18.40
2022-08-20T04:54:09.486Z,21.58
2022-08-20T04:56:39.775Z,22.45
2022-08-20T04:59:09.184Z,22.70
2022-08-20T05:01:37.449Z,21.58
2022-08-20T05:04:05.922Z,21.58
2022-08-20T05:06:35.715Z,18.17
2022-08-20T05:09:04.044Z,24.42
2022-08-20T05:11:36.471Z,19.13
2022-08-20T05:14:09.028Z,19.37
2022-08-20T05:16:39.315Z,15.93
2022-08-20T05:19:09.831Z,18.42
2022-08-20T05:21:40.372Z,20.48
2022-08-20T05:24:10.148Z,17.75
2022-08-20T05:26:38.555Z,20.02
2022-08-20T05:29:07.619Z,17.80
2022-08-20T05:31:37.568Z,16.70
2022-08-20T05:34:10.363Z,18.88
2022-08-20T05:39:11.340Z,19.85
2022-08-20T05:41:40.751Z,16.65
2022-08-20T05:44:13.835Z,18.00
2022-08-20T05:46:43.732Z,15.45
2022-08-20T05:49:15.215Z,17.08
2022-08-20T05:51:45.165Z,15.43
2022-08-20T05:54:14.556Z,16.88
2022-08-20T05:56:43.489Z,15.50
2022-08-20T05:59:12.620Z,15.60
2022-08-20T06:01:42.957Z,12.90
2022-08-20T06:04:28.203Z,12.32
2022-08-20T06:07:05.000Z,14.55
2022-08-20T06:09:34.202Z,12.60
2022-08-20T06:12:04.854Z,13.15
2022-08-20T06:14:33.488Z,13.25
2022-08-20T06:17:07.533Z,11.23
2022-08-20T06:19:36.514Z,11.93
2022-08-20T06:22:21.304Z,13.75
2022-08-20T06:24:55.166Z,13.48
2022-08-20T06:27:24.437Z,10.38
2022-08-20T06:29:53.425Z,13.43
2022-08-20T06:32:32.102Z,11.88
2022-08-20T06:35:03.229Z,16.85
2022-08-20T06:37:36.543Z,12.13
2022-08-20T06:40:07.576Z,10.57
2022-08-20T06:42:36.358Z,13.43
2022-08-20T06:45:05.883Z,11.05
2022-08-20T06:47:35.595Z,15.18
2022-08-20T06:50:03.737Z,13.68
2022-08-20T06:52:51.921Z,13.00
2022-08-20T06:55:22.274Z,10.10
2022-08-20T06:57:59.430Z,10.50
2022-08-20T07:00:29.739Z,10.60
2022-08-20T07:03:00.659Z,10.95
2022-08-20T07:05:29.036Z,13.43
2022-08-20T07:07:59.723Z,12.40
2022-08-20T07:10:30.296Z,14.38
2022-08-20T07:12:59.325Z,12.20
2022-08-20T07:15:28.531Z,11.25
2022-08-20T07:18:01.439Z,10.73
2022-08-20T07:23:00.690Z,13.50
2022-08-20T07:25:29.917Z,12.20
2022-08-20T07:28:03.170Z,10.85
2022-08-20T07:35:56.882Z,10.73
2022-08-20T07:38:28.516Z,13.27
2022-08-20T07:40:59.371Z,10.57
2022-08-20T07:43:28.365Z,12.00
2022-08-20T07:45:58.771Z,14.07
2022-08-20T07:48:32.337Z,10.93
2022-08-20T07:51:03.207Z,10.20
2022-08-20T07:53:35.866Z,11.88
2022-08-20T07:56:06.617Z,11.15
2022-08-20T07:58:37.259Z,12.43
2022-08-20T08:01:06.741Z,9.43
2022-08-20T08:03:39.913Z,13.35
2022-08-20T08:09:05.242Z,10.60
2022-08-20T08:11:35.964Z,10.32
2022-08-20T08:14:06.535Z,9.48
2022-08-20T08:16:35.269Z,10.73
2022-08-20T08:19:07.785Z,10.48
2022-08-20T08:21:36.314Z,9.80
2022-08-20T08:24:06.359Z,12.60
2022-08-20T08:26:34.882Z,12.00
2022-08-20T08:29:03.700Z,10.98
2022-08-20T08:31:31.833Z,10.95
2022-08-20T08:34:00.785Z,12.43
2022-08-20T08:36:29.046Z,11.57
2022-08-20T08:38:57.396Z,10.32
2022-08-20T08:41:32.272Z,13.00
2022-08-20T08:44:08.142Z,10.52
2022-08-20T08:46:41.164Z,11.50
2022-08-20T08:49:13.492Z,11.90
2022-08-20T08:51:46.536Z,12.97
2022-08-20T08:54:17.747Z,8.63
2022-08-20T08:56:50.376Z,11.23
2022-08-20T08:59:19.588Z,10.73
2022-08-20T09:01:55.133Z,9.88
2022-08-20T09:04:31.496Z,10.48
2022-08-20T09:07:00.483Z,10.32
2022-08-20T09:09:31.457Z,9.20
2022-08-20T09:12:06.756Z,6.43
2022-08-20T09:14:35.935Z,10.18
2022-08-20T09:17:04.756Z,8.98
2022-08-20T09:19:33.086Z,9.73
2022-08-20T09:22:07.776Z,7.15
2022-08-20T09:24:36.083Z,7.45
2022-08-20T09:27:06.189Z,8.68
2022-08-20T09:29:34.500Z,9.00
2022-08-20T09:32:06.988Z,8.52
2022-08-20T09:34:37.998Z,8.82
2022-08-20T09:37:06.395Z,9.00
2022-08-20T09:39:34.645Z,9.25
2022-08-20T09:42:12.051Z,11.88
2022-08-20T09:44:40.887Z,12.15
2022-08-20T09:47:09.352Z,13.10
2022-08-20T09:49:38.381Z,8.20
2022-08-20T09:52:09.732Z,11.25
2022-08-20T09:54:46.349Z,9.27
2022-08-20T09:57:17.649Z,9.15
2022-08-20T09:59:51.560Z,9.10
2022-08-20T10:02:19.733Z,9.57
2022-08-20T10:04:47.807Z,9.43
2022-08-20T10:07:16.444Z,11.57
2022-08-20T10:09:44.862Z,10.50
2022-08-20T10:12:13.637Z,9.63
2022-08-20T10:14:43.203Z,9.43
2022-08-20T10:17:11.735Z,8.23
2022-08-20T10:19:40.110Z,7.35
2022-08-20T10:22:08.255Z,9.50
2022-08-20T10:24:36.472Z,6.50
2022-08-20T10:27:05.217Z,6.57
2022-08-20T10:29:33.654Z,6.60
2022-08-20T10:32:13.591Z,8.18
2022-08-20T10:34:42.825Z,7.45
2022-08-20T10:37:15.360Z,5.90
2022-08-20T10:39:43.722Z,5.32
2022-08-20T10:42:12.154Z,7.75
2022-08-20T10:44:40.806Z,9.00
2022-08-20T10:47:18.428Z,6.50
2022-08-20T10:49:47.406Z,6.45
2022-08-20T10:52:15.957Z,5.78
2022-08-20T10:54:44.168Z,7.68
2022-08-20T10:57:16.675Z,6.93
2022-08-20T10:59:46.997Z,4.20
2022-08-20T11:02:17.057Z,5.38
2022-08-20T11:04:45.924Z,6.03
2022-08-20T11:07:16.479Z,5.03
2022-08-20T11:09:46.369Z,8.80
2022-08-20T11:12:14.925Z,4.88
2022-08-20T11:14:43.303Z,6.78
2022-08-20T11:17:11.911Z,5.22
2022-08-20T11:19:43.453Z,4.43
2022-08-20T11:22:12.699Z,7.82
2022-08-20T11:24:41.204Z,4.50
2022-08-20T11:27:10.587Z,5.57
2022-08-20T11:29:39.534Z,5.43
2022-08-20T11:32:10.518Z,4.82
2022-08-20T11:34:38.715Z,4.63
2022-08-20T11:37:08.352Z,6.35
2022-08-20T11:39:41.258Z,5.72
2022-08-20T11:42:10.423Z,6.90
2022-08-20T11:44:38.791Z,5.30
2022-08-20T11:47:08.491Z,8.27
2022-08-20T11:49:38.001Z,6.85
2022-08-20T11:52:08.020Z,6.18
2022-08-20T11:54:40.609Z,7.13
2022-08-20T11:57:09.161Z,5.75
2022-08-20T11:59:37.310Z,7.63
2022-08-20T12:02:10.228Z,5.72
2022-08-20T12:04:40.459Z,5.20
2022-08-20T12:07:15.872Z,4.95
2022-08-20T12:09:51.093Z,5.97
2022-08-20T12:12:22.568Z,5.40
2022-08-20T12:14:51.547Z,7.65
2022-08-20T12:17:23.893Z,5.45
2022-08-20T12:19:53.927Z,7.03
2022-08-20T12:22:25.284Z,7.25
2022-08-20T12:24:54.233Z,5.97
2022-08-20T12:27:24.517Z,7.15
2022-08-20T12:29:55.082Z,6.18
2022-08-20T12:32:25.108Z,4.90
2022-08-20T12:34:53.989Z,5.90
2022-08-20T12:37:25.816Z,11.43
2022-08-20T12:39:56.295Z,7.25
2022-08-20T12:42:25.133Z,4.40
2022-08-20T12:44:53.539Z,5.97
2022-08-20T12:47:24.569Z,5.68
2022-08-20T12:49:54.959Z,4.68
2022-08-20T12:52:26.229Z,6.28
2022-08-20T12:54:54.673Z,5.75
2022-08-20T12:57:28.422Z,6.68
2022-08-20T12:59:57.866Z,6.25
2022-08-20T13:02:27.423Z,12.18
2022-08-20T13:04:55.861Z,4.50
2022-08-20T13:07:28.176Z,7.43
2022-08-20T13:09:56.539Z,6.53
2022-08-20T13:12:24.841Z,6.47
2022-08-20T13:14:53.254Z,7.05
2022-08-20T13:17:33.647Z,4.43
2022-08-20T13:20:09.896Z,6.43
2022-08-20T13:22:39.766Z,4.97
2022-08-20T13:25:09.701Z,6.15
2022-08-20T13:27:38.941Z,6.65
2022-08-20T13:30:09.333Z,6.68
2022-08-20T13:32:37.876Z,6.20
2022-08-20T13:35:07.002Z,4.75
2022-08-20T13:37:35.858Z,6.55
2022-08-20T13:40:08.011Z,5.93
2022-08-20T13:42:37.020Z,7.40
2022-08-20T13:45:06.678Z,8.55
2022-08-20T13:47:37.073Z,6.78
2022-08-20T13:50:08.424Z,5.32
2022-08-20T13:52:37.021Z,7.22
2022-08-20T13:55:10.259Z,6.57
2022-08-20T14:00:11.549Z,6.40
2022-08-20T14:02:40.154Z,6.10
2022-08-20T14:05:09.628Z,7.05
2022-08-20T14:07:39.361Z,6.72
2022-08-20T14:10:13.794Z,7.13
2022-08-20T14:12:42.325Z,6.80
2022-08-20T14:15:11.888Z,8.70
2022-08-20T14:17:42.127Z,7.32
2022-08-20T14:20:13.992Z,5.80
2022-08-20T14:22:43.723Z,7.15
2022-08-20T14:25:16.839Z,7.85
2022-08-20T14:30:15.681Z,7.03
2022-08-20T14:32:44.228Z,4.20
2022-08-20T14:35:13.188Z,5.10
2022-08-20T14:37:43.956Z,6.32
2022-08-20T14:40:15.990Z,8.88
2022-08-20T14:42:49.022Z,4.55
2022-08-20T14:45:21.311Z,6.47
2022-08-20T14:47:53.769Z,6.45
2022-08-20T14:50:25.297Z,4.57
2022-08-20T14:52:53.759Z,5.68
2022-08-20T14:55:26.301Z,5.28
2022-08-20T14:57:55.082Z,7.00
2022-08-20T15:00:29.820Z,6.38
2022-08-20T15:02:58.848Z,6.72
2022-08-20T15:05:27.135Z,5.85
2022-08-20T15:07:59.494Z,8.35
2022-08-20T15:10:31.668Z,6.20
2022-08-20T15:13:00.489Z,6.82
2022-08-20T15:15:28.934Z,6.35
2022-08-20T15:18:00.254Z,6.30
2022-08-20T15:20:31.700Z,5.47
2022-08-20T15:23:00.827Z,7.03
2022-08-20T15:25:36.681Z,4.63
2022-08-20T15:28:07.185Z,6.57
2022-08-20T15:30:36.487Z,6.72
2022-08-20T15:33:04.759Z,5.45
2022-08-20T15:35:33.239Z,8.15
2022-08-20T15:38:03.007Z,8.80
2022-08-20T15:40:34.160Z,5.35
2022-08-20T15:43:05.032Z,6.57
2022-08-20T15:45:33.681Z,6.85
2022-08-20T15:48:09.422Z,7.45
2022-08-20T15:51:01.494Z,5.07
2022-08-20T15:53:34.696Z,5.22
2022-08-20T15:56:18.376Z,5.35
2022-08-20T15:59:06.064Z,6.72
2022-08-20T16:01:38.707Z,5.85
2022-08-20T16:04:34.803Z,5.30
2022-08-20T16:07:11.293Z,4.28
2022-08-20T16:09:52.554Z,7.15
2022-08-20T16:12:29.129Z,6.57
2022-08-20T16:15:03.491Z,5.88
2022-08-20T16:17:36.055Z,6.07
2022-08-20T16:20:10.000Z,7.80
2022-08-20T16:22:43.236Z,5.70
2022-08-20T16:27:51.321Z,6.53
2022-08-20T16:30:23.581Z,5.88
2022-08-20T16:32:58.556Z,8.20
2022-08-20T16:35:32.134Z,7.85
2022-08-20T16:38:07.831Z,7.47
2022-08-20T16:40:44.479Z,8.88
2022-08-20T16:43:24.662Z,6.53
2022-08-20T16:45:56.963Z,5.82
2022-08-20T16:48:35.011Z,6.57
2022-08-20T16:51:07.750Z,4.75
2022-08-20T16:53:36.726Z,6.65
2022-08-20T16:56:06.158Z,7.45
2022-08-20T16:58:35.883Z,5.90
2022-08-20T17:01:10.672Z,6.07
2022-08-20T17:03:40.896Z,6.78
2022-08-20T17:06:20.578Z,6.18
2022-08-20T17:08:51.746Z,7.40
2022-08-20T17:11:26.534Z,5.75
2022-08-20T17:14:07.967Z,7.03
2022-08-20T17:16:38.856Z,7.03
2022-08-20T17:19:18.643Z,6.20
2022-08-20T17:21:50.427Z,5.10
2022-08-20T17:24:24.880Z,7.05
2022-08-20T17:26:59.428Z,6.25
2022-08-20T17:29:31.063Z,9.65
2022-08-20T17:32:01.533Z,8.60
2022-08-20T17:34:32.807Z,9.07
2022-08-20T17:37:08.439Z,6.13
2022-08-20T17:39:36.978Z,5.20
2022-08-20T17:42:08.952Z,6.68
2022-08-20T17:44:43.029Z,5.05
2022-08-20T17:47:16.068Z,5.70
2022-08-20T17:49:57.457Z,7.50
2022-08-20T17:52:40.285Z,5.22
2022-08-20T17:55:09.710Z,6.90
2022-08-20T17:57:41.429Z,8.60
2022-08-20T18:00:15.612Z,6.47
2022-08-20T18:02:45.151Z,7.43
2022-08-20T18:05:19.034Z,10.18
2022-08-20T18:08:02.621Z,5.60
2022-08-20T18:13:05.665Z,6.13
2022-08-20T18:15:41.253Z,5.15
2022-08-20T18:18:22.974Z,5.13
2022-08-20T18:21:16.443Z,7.00
2022-08-20T18:23:48.061Z,5.45
2022-08-20T18:26:20.762Z,7.88
2022-08-20T18:28:54.946Z,5.00
2022-08-20T18:31:30.122Z,6.85
2022-08-20T18:33:58.803Z,6.50
2022-08-20T18:36:29.375Z,6.05
2022-08-20T18:39:02.672Z,7.50
2022-08-20T18:41:33.374Z,6.50
2022-08-20T18:44:10.899Z,7.07
2022-08-20T18:46:52.667Z,9.57
2022-08-20T18:49:29.157Z,8.30
2022-08-20T18:51:58.424Z,6.00
2022-08-20T18:54:30.837Z,8.65
2022-08-20T18:57:07.573Z,7.82
2022-08-20T18:59:44.158Z,6.32
2022-08-20T19:02:24.166Z,7.13
2022-08-20T19:05:02.013Z,9.45
2022-08-20T19:07:45.699Z,5.63
2022-08-20T19:10:39.639Z,7.28
2022-08-20T19:13:39.953Z,6.57
2022-08-20T19:16:12.483Z,7.57
2022-08-20T19:18:47.376Z,6.13
2022-08-20T19:21:17.856Z,6.28
2022-08-20T19:23:51.123Z,7.57
2022-08-20T19:26:25.018Z,6.93
2022-08-20T19:28:58.257Z,9.13
2022-08-20T19:31:28.775Z,9.13
2022-08-20T19:34:20.099Z,7.05
2022-08-20T19:36:56.129Z,9.63
2022-08-20T19:39:26.074Z,7.20
2022-08-20T19:41:58.422Z,8.75
2022-08-20T19:44:40.655Z,9.40
2022-08-20T19:47:19.886Z,8.38
2022-08-20T19:49:57.803Z,8.50
2022-08-20T19:52:41.621Z,6.47
2022-08-20T19:57:51.689Z,7.13
2022-08-20T20:00:20.703Z,5.47
2022-08-20T20:02:48.923Z,8.63
2022-08-20T20:05:18.921Z,4.80
2022-08-20T20:07:50.059Z,7.40
2022-08-20T20:10:32.713Z,7.28
2022-08-20T20:13:09.407Z,9.40
2022-08-20T20:15:38.795Z,7.65
2022-08-20T20:18:08.299Z,10.00
2022-08-20T20:20:50.287Z,6.65
2022-08-20T20:23:28.181Z,7.35
2022-08-20T20:26:18.429Z,7.38
2022-08-20T20:28:49.280Z,8.50
2022-08-20T20:31:23.705Z,7.38
2022-08-20T20:33:55.677Z,8.40
2022-08-20T20:36:36.404Z,7.85
2022-08-20T20:39:10.259Z,8.30
2022-08-20T20:41:54.264Z,7.45
2022-08-20T20:44:25.524Z,8.32
2022-08-20T20:46:58.235Z,6.30
2022-08-20T20:49:28.719Z,7.10
2022-08-20T20:52:02.817Z,8.30
2022-08-20T20:54:41.477Z,7.07
2022-08-20T20:57:32.645Z,8.35
2022-08-20T21:00:10.312Z,8.82
2022-08-20T21:02:39.075Z,7.25
2022-08-20T21:05:08.165Z,9.48
2022-08-20T21:07:50.106Z,8.93
2022-08-20T21:10:20.420Z,7.97
2022-08-20T21:12:52.668Z,7.95
2022-08-20T21:15:22.480Z,9.30
2022-08-20T21:17:51.624Z,7.63
2022-08-20T21:20:20.916Z,8.10
2022-08-20T21:22:50.555Z,8.00
2022-08-20T21:25:20.607Z,8.50
2022-08-20T21:27:52.259Z,9.68
2022-08-20T21:30:22.343Z,10.15
2022-08-20T21:32:51.108Z,7.95
2022-08-20T21:35:19.694Z,8.93
2022-08-20T21:37:48.318Z,8.23
2022-08-20T21:40:21.856Z,8.60
2022-08-20T21:42:51.166Z,7.60
2022-08-20T21:45:20.300Z,8.93
2022-08-20T21:47:49.046Z,5.22
2022-08-20T21:50:19.411Z,9.95
2022-08-20T21:52:55.435Z,7.60
2022-08-20T21:55:30.682Z,6.30
2022-08-20T21:57:59.254Z,5.90
2022-08-20T22:00:54.938Z,7.88
2022-08-20T22:03:25.570Z,6.43
2022-08-20T22:05:54.080Z,8.90
2022-08-20T22:08:28.549Z,7.55
2022-08-20T22:10:59.579Z,9.18
2022-08-20T22:13:31.728Z,10.52
2022-08-20T22:16:00.232Z,7.43
2022-08-20T22:18:28.758Z,6.85
2022-08-20T22:20:57.471Z,7.18
2022-08-20T22:23:26.314Z,9.60
2022-08-20T22:25:54.752Z,9.50
2022-08-20T22:28:24.615Z,7.22
2022-08-20T22:30:53.274Z,7.93
2022-08-20T22:33:24.025Z,8.63
2022-08-20T22:35:54.301Z,6.82
2022-08-20T22:38:23.343Z,6.82
2022-08-20T22:40:54.054Z,7.22
2022-08-20T22:43:24.354Z,6.65
2022-08-20T22:45:56.622Z,8.38
2022-08-20T22:48:24.919Z,8.90
2022-08-20T22:50:53.972Z,6.97
2022-08-20T22:53:23.790Z,6.28
2022-08-20T22:55:52.637Z,8.13
2022-08-20T22:58:30.911Z,6.78
2022-08-20T23:01:04.706Z,9.95
2022-08-20T23:03:39.281Z,7.78
2022-08-20T23:06:10.353Z,6.43
2022-08-20T23:08:39.162Z,6.55
2022-08-20T23:11:07.569Z,8.82
2022-08-20T23:13:36.064Z,8.15
2022-08-20T23:16:06.812Z,5.40
2022-08-20T23:18:35.071Z,8.02
2022-08-20T23:21:03.841Z,6.97
2022-08-20T23:23:32.402Z,9.05
2022-08-20T23:26:01.579Z,9.48
2022-08-20T23:28:29.804Z,7.53
2022-08-20T23:30:58.050Z,6.18
2022-08-20T23:33:27.690Z,7.53
2022-08-20T23:35:56.329Z,5.68
2022-08-20T23:38:24.793Z,6.18
2022-08-20T23:40:52.937Z,7.18
2022-08-20T23:43:21.213Z,8.52
2022-08-20T23:45:49.459Z,7.63
2022-08-20T23:48:17.605Z,8.35
2022-08-20T23:50:47.261Z,8.35
2022-08-20T23:53:15.468Z,7.03
2022-08-20T23:55:43.878Z,8.23
2022-08-20T23:58:12.278Z,8.25
